Alisal, California
Current Conditions -  °F | °C
As of 8:17 AM on Sunday 21 Dec 2014 (Local Time) from KSNS Reporting Station
Broken Clouds Broken Clouds  
Wind Chill: 55°   Ceiling: 1900
Heat Index: 55°   Visibility: 9mi
Dew Point: 52°   Wind: 0mph
Humidity: 88%   Direction: NA
Pressure: 30.29"   Gusts: NA
Location:  36.6786°N, 121.613°W
Report Text: KSNS 211617Z 00000KT 9SM BKN019 13/11 A3029 RMK AO2
Loading
Personal Weather Stations






























Interactive Weather Map New forecast layout! Learn more

10-Day Weather Forecast

Advertisements
Track Severe Weather on mobile